createdAt,value
2018-03-29T00:00:19.044Z,5.57
2018-03-29T00:02:46.532Z,6.78
2018-03-29T00:05:14.431Z,6.00
2018-03-29T00:07:41.918Z,7.45
2018-03-29T00:10:09.429Z,7.50
2018-03-29T00:12:36.930Z,6.82
2018-03-29T00:15:04.452Z,6.87
2018-03-29T00:17:31.948Z,7.60
2018-03-29T00:19:59.475Z,7.43
2018-03-29T00:22:26.971Z,8.32
2018-03-29T00:24:54.454Z,6.68
2018-03-29T00:27:22.364Z,6.28
2018-03-29T00:29:49.888Z,6.47
2018-03-29T00:32:17.383Z,6.65
2018-03-29T00:34:44.888Z,6.30
2018-03-29T00:37:12.793Z,4.90
2018-03-29T00:39:40.288Z,5.30
2018-03-29T00:42:07.808Z,4.32
2018-03-29T00:44:35.311Z,5.45
2018-03-29T00:49:36.661Z,4.00
2018-03-29T00:52:04.151Z,4.37
2018-03-29T00:54:32.048Z,4.10
2018-03-29T00:56:59.539Z,4.00
2018-03-29T00:59:27.050Z,4.00
2018-03-29T01:01:54.532Z,4.10
2018-03-29T01:04:22.016Z,3.80
2018-03-29T01:06:49.519Z,3.75
2018-03-29T01:09:17.007Z,2.95
2018-03-29T01:11:44.503Z,3.42
2018-03-29T01:14:11.992Z,3.75
2018-03-29T01:16:39.483Z,4.40
2018-03-29T01:19:06.992Z,4.22
2018-03-29T01:21:34.511Z,3.83
2018-03-29T01:24:02.002Z,4.55
2018-03-29T01:26:29.901Z,4.53
2018-03-29T01:28:57.395Z,4.50
2018-03-29T01:31:24.895Z,4.43
2018-03-29T01:33:52.395Z,4.53
2018-03-29T01:36:19.881Z,3.90
2018-03-29T01:38:47.380Z,4.78
2018-03-29T01:41:14.883Z,4.20
2018-03-29T01:43:42.388Z,4.60
2018-03-29T01:46:09.944Z,3.87
2018-03-29T01:48:37.436Z,3.65
2018-03-29T01:51:04.952Z,3.78
2018-03-29T01:53:32.437Z,2.85
2018-03-29T01:55:59.953Z,3.00
2018-03-29T01:58:27.847Z,3.47
2018-03-29T02:00:55.402Z,3.78
2018-03-29T02:03:23.284Z,4.40
2018-03-29T02:05:50.771Z,4.30
2018-03-29T02:08:18.282Z,4.10
2018-03-29T02:10:45.776Z,4.60
2018-03-29T02:13:13.262Z,3.58
2018-03-29T02:15:40.775Z,2.97
2018-03-29T02:18:08.287Z,4.75
2018-03-29T02:20:36.171Z,4.53
2018-03-29T02:23:03.658Z,4.50
2018-03-29T02:25:31.163Z,4.43
2018-03-29T02:27:59.050Z,5.10
2018-03-29T02:30:26.604Z,4.40
2018-03-29T02:32:54.100Z,5.65
2018-03-29T02:35:21.591Z,4.93
2018-03-29T02:37:49.092Z,5.30
2018-03-29T02:40:16.587Z,5.05
2018-03-29T02:42:44.477Z,5.55
2018-03-29T02:45:12.241Z,4.45
2018-03-29T02:47:40.301Z,4.90
2018-03-29T02:50:07.858Z,5.20
2018-03-29T02:52:35.369Z,5.03
2018-03-29T02:55:02.876Z,5.53
2018-03-29T02:57:30.376Z,5.12
2018-03-29T02:59:58.089Z,4.78
2018-03-29T03:02:25.662Z,5.82
2018-03-29T03:04:53.160Z,5.40
2018-03-29T03:07:20.738Z,5.15
2018-03-29T03:09:48.420Z,5.43
2018-03-29T03:12:15.935Z,5.50
2018-03-29T03:14:43.588Z,5.05
2018-03-29T03:17:11.079Z,5.37
2018-03-29T03:19:38.566Z,5.62
2018-03-29T03:22:06.065Z,5.80
2018-03-29T03:24:33.551Z,5.90
2018-03-29T03:27:01.045Z,5.28
2018-03-29T03:29:28.949Z,5.65
2018-03-29T03:31:56.444Z,6.57
2018-03-29T03:34:24.016Z,5.50
2018-03-29T03:36:51.515Z,6.80
2018-03-29T03:39:19.111Z,7.18
2018-03-29T03:41:46.646Z,7.20
2018-03-29T03:44:14.186Z,7.30
2018-03-29T03:46:41.787Z,8.55
2018-03-29T03:49:10.213Z,7.80
2018-03-29T03:51:38.210Z,7.80
2018-03-29T03:54:07.464Z,7.15
2018-03-29T03:56:35.069Z,6.90
2018-03-29T03:59:02.774Z,7.50
2018-03-29T04:01:30.326Z,7.90
2018-03-29T04:04:00.025Z,7.90
2018-03-29T04:06:27.522Z,6.70
2018-03-29T04:08:55.480Z,7.75
2018-03-29T04:11:23.059Z,7.87
2018-03-29T04:13:50.552Z,8.25
2018-03-29T04:16:18.096Z,7.28
2018-03-29T04:18:45.606Z,6.97
2018-03-29T04:21:13.131Z,7.85
2018-03-29T04:23:40.646Z,7.32
2018-03-29T04:26:08.146Z,7.77
2018-03-29T04:28:35.690Z,7.73
2018-03-29T04:31:03.343Z,8.48
2018-03-29T04:33:31.304Z,8.63
2018-03-29T04:35:59.012Z,9.00
2018-03-29T04:38:26.587Z,8.55
2018-03-29T04:40:54.075Z,8.95
2018-03-29T04:43:21.595Z,9.90
2018-03-29T04:45:49.107Z,10.02
2018-03-29T04:48:16.664Z,10.43
2018-03-29T04:50:44.198Z,10.97
2018-03-29T04:53:11.819Z,9.73
2018-03-29T04:55:39.401Z,11.50
2018-03-29T04:58:07.302Z,11.23
2018-03-29T05:00:34.974Z,10.77
2018-03-29T05:03:03.012Z,11.77
2018-03-29T05:05:30.899Z,10.20
2018-03-29T05:07:58.408Z,9.23
2018-03-29T05:10:25.927Z,10.73
2018-03-29T05:12:53.437Z,12.52
2018-03-29T05:15:21.353Z,10.97
2018-03-29T05:17:48.891Z,10.70
2018-03-29T05:20:16.424Z,11.65
2018-03-29T05:22:44.374Z,10.57
2018-03-29T05:25:12.306Z,9.53
2018-03-29T05:27:39.808Z,10.98
2018-03-29T05:30:07.340Z,10.10
2018-03-29T05:32:34.920Z,11.60
2018-03-29T05:35:02.419Z,9.88
2018-03-29T05:37:30.172Z,9.10
2018-03-29T05:39:57.676Z,11.05
2018-03-29T05:42:25.666Z,10.07
2018-03-29T05:44:53.170Z,10.80
2018-03-29T05:47:20.752Z,10.02
2018-03-29T05:49:48.424Z,9.70
2018-03-29T05:52:16.016Z,10.40
2018-03-29T05:54:43.941Z,10.90
2018-03-29T05:57:11.507Z,10.70
2018-03-29T05:59:39.051Z,10.90
2018-03-29T06:02:06.556Z,11.60
2018-03-29T06:04:34.060Z,10.57
2018-03-29T06:07:01.611Z,11.23
2018-03-29T06:09:29.208Z,12.17
2018-03-29T06:11:56.713Z,11.52
2018-03-29T06:14:24.218Z,11.43
2018-03-29T06:16:51.719Z,12.13
2018-03-29T06:19:19.236Z,12.45
2018-03-29T06:21:46.756Z,12.87
2018-03-29T06:24:14.252Z,13.97
2018-03-29T06:26:41.750Z,14.20
2018-03-29T06:29:09.664Z,13.43
2018-03-29T06:31:37.163Z,12.60
2018-03-29T06:34:05.071Z,10.65
2018-03-29T06:36:32.600Z,13.43
2018-03-29T06:39:00.106Z,13.30
2018-03-29T06:41:27.627Z,13.18
2018-03-29T06:43:55.147Z,15.77
2018-03-29T06:46:22.660Z,13.75
2018-03-29T06:48:50.179Z,15.85
2018-03-29T06:51:18.123Z,14.57
2018-03-29T06:53:45.639Z,16.00
2018-03-29T06:56:13.151Z,17.85
2018-03-29T06:58:41.141Z,16.87
2018-03-29T07:01:08.656Z,18.27
2018-03-29T07:03:36.184Z,19.02
2018-03-29T07:06:03.741Z,19.80
2018-03-29T07:08:31.232Z,19.47
2018-03-29T07:10:58.764Z,22.83
2018-03-29T07:13:26.803Z,22.77
2018-03-29T07:15:54.319Z,24.00
2018-03-29T07:18:21.832Z,24.48
2018-03-29T07:20:49.409Z,25.33
2018-03-29T07:23:16.907Z,25.47
2018-03-29T07:25:44.435Z,24.47
2018-03-29T07:28:11.927Z,25.50
2018-03-29T07:30:39.901Z,29.17
2018-03-29T07:33:07.359Z,27.03
2018-03-29T07:35:35.255Z,28.73
2018-03-29T07:38:02.776Z,29.30
2018-03-29T07:40:30.667Z,27.47
2018-03-29T07:42:58.196Z,29.73
2018-03-29T07:45:26.240Z,29.53
2018-03-29T07:47:53.815Z,27.50
2018-03-29T07:50:21.790Z,31.80
2018-03-29T07:52:50.033Z,29.23
2018-03-29T07:55:17.659Z,31.60
2018-03-29T07:57:45.159Z,30.07
2018-03-29T08:00:12.729Z,30.73
2018-03-29T08:02:40.325Z,28.83
2018-03-29T08:05:08.008Z,30.47
2018-03-29T08:07:35.513Z,29.23
2018-03-29T08:10:03.051Z,30.83
2018-03-29T08:12:30.556Z,27.60
2018-03-29T08:14:58.452Z,29.60
2018-03-29T08:17:25.947Z,30.03
2018-03-29T08:19:53.446Z,27.53
2018-03-29T08:22:21.346Z,29.90
2018-03-29T08:24:48.885Z,23.23
2018-03-29T08:27:16.387Z,30.20
2018-03-29T08:29:43.888Z,25.27
2018-03-29T08:32:11.408Z,29.70
2018-03-29T08:34:38.911Z,27.83
2018-03-29T08:37:06.417Z,27.20
2018-03-29T08:39:33.926Z,27.93
2018-03-29T08:42:01.439Z,29.70
2018-03-29T08:44:28.959Z,31.50
2018-03-29T08:46:56.455Z,31.97
2018-03-29T08:49:23.951Z,28.70
2018-03-29T08:51:51.461Z,26.80
2018-03-29T08:54:24.783Z,30.40
2018-03-29T08:56:52.709Z,26.27
2018-03-29T08:59:20.232Z,27.57
2018-03-29T09:01:47.735Z,26.53
2018-03-29T09:04:15.238Z,25.43
2018-03-29T09:06:42.729Z,25.90
2018-03-29T09:09:10.233Z,22.63
2018-03-29T09:11:38.125Z,24.17
2018-03-29T09:14:05.644Z,25.57
2018-03-29T09:16:33.131Z,24.17
2018-03-29T09:19:00.662Z,24.67
2018-03-29T09:21:28.165Z,18.67
2018-03-29T09:23:55.662Z,23.00
2018-03-29T09:26:23.159Z,22.90
2018-03-29T09:28:50.678Z,23.83
2018-03-29T09:31:18.180Z,23.00
2018-03-29T09:33:45.711Z,22.13
2018-03-29T09:36:13.200Z,21.17
2018-03-29T09:38:40.723Z,21.67
2018-03-29T09:41:08.215Z,20.27
2018-03-29T09:43:35.720Z,20.83
2018-03-29T09:46:03.227Z,22.17
2018-03-29T09:48:30.735Z,22.27
2018-03-29T09:50:58.241Z,20.23
2018-03-29T09:53:25.746Z,22.37
2018-03-29T09:55:53.260Z,21.77
2018-03-29T09:58:20.773Z,20.37
2018-03-29T10:00:48.340Z,21.57
2018-03-29T10:03:15.856Z,19.10
2018-03-29T10:05:43.346Z,17.83
2018-03-29T10:08:10.856Z,18.60
2018-03-29T10:10:38.364Z,18.93
2018-03-29T10:13:06.012Z,16.40
2018-03-29T10:15:33.512Z,19.60
2018-03-29T10:18:01.037Z,18.63
2018-03-29T10:20:28.574Z,17.63
2018-03-29T10:22:56.072Z,18.93
2018-03-29T10:25:24.012Z,17.93
2018-03-29T10:27:51.534Z,17.10
2018-03-29T10:30:19.047Z,16.53
2018-03-29T10:32:46.934Z,17.90
2018-03-29T10:35:14.443Z,18.10
2018-03-29T10:37:42.105Z,17.40
2018-03-29T10:40:09.596Z,18.23
2018-03-29T10:42:37.501Z,17.57
2018-03-29T10:45:04.990Z,17.47
2018-03-29T10:47:35.877Z,18.03
2018-03-29T10:50:03.383Z,16.17
2018-03-29T10:52:30.936Z,18.50
2018-03-29T10:54:58.461Z,18.53
2018-03-29T10:57:25.959Z,18.17
2018-03-29T10:59:53.540Z,20.07
2018-03-29T11:02:21.092Z,18.70
2018-03-29T11:04:48.591Z,18.93
2018-03-29T11:07:16.084Z,19.13
2018-03-29T11:09:43.580Z,17.73
2018-03-29T11:12:11.479Z,18.57
2018-03-29T11:14:39.001Z,18.43
2018-03-29T11:17:06.900Z,19.63
2018-03-29T11:19:34.394Z,17.37
2018-03-29T11:22:01.905Z,17.80
2018-03-29T11:24:29.424Z,18.10
2018-03-29T11:26:56.936Z,18.33
2018-03-29T11:29:24.430Z,17.57
2018-03-29T11:31:51.918Z,16.37
2018-03-29T11:34:19.423Z,16.97
2018-03-29T11:36:46.915Z,17.10
2018-03-29T11:39:14.420Z,17.73
2018-03-29T11:41:41.938Z,15.23
2018-03-29T11:44:09.421Z,17.23
2018-03-29T11:46:36.930Z,17.63
2018-03-29T11:49:04.417Z,15.47
2018-03-29T11:51:32.332Z,16.77
2018-03-29T11:53:59.823Z,16.20
2018-03-29T11:56:27.311Z,16.17
2018-03-29T11:58:55.204Z,17.50
2018-03-29T12:01:22.682Z,16.63
2018-03-29T12:03:50.187Z,16.43
2018-03-29T12:06:18.061Z,16.33
2018-03-29T12:08:45.574Z,17.10
2018-03-29T12:11:13.083Z,15.33
2018-03-29T12:13:40.587Z,16.07
2018-03-29T12:16:08.140Z,14.40
2018-03-29T12:18:35.606Z,15.13
2018-03-29T12:21:03.104Z,15.10
2018-03-29T12:23:30.611Z,14.03
2018-03-29T12:25:58.099Z,14.10
2018-03-29T12:28:25.992Z,13.80
2018-03-29T12:30:53.482Z,14.97
2018-03-29T12:33:20.996Z,15.33
2018-03-29T12:35:48.883Z,17.57
2018-03-29T12:38:16.383Z,20.30
2018-03-29T12:40:43.884Z,19.20
2018-03-29T12:43:11.380Z,20.93
2018-03-29T12:45:38.883Z,20.10
2018-03-29T12:48:06.812Z,20.17
2018-03-29T12:50:34.299Z,21.70
2018-03-29T12:53:02.198Z,21.93
2018-03-29T12:55:42.709Z,21.57
2018-03-29T12:58:10.941Z,22.23
2018-03-29T13:00:38.482Z,23.30
2018-03-29T13:03:05.955Z,22.00
2018-03-29T13:05:33.455Z,22.37
2018-03-29T13:08:00.955Z,22.43
2018-03-29T13:10:28.443Z,21.97
2018-03-29T13:12:55.975Z,21.97
2018-03-29T13:15:23.485Z,20.17
2018-03-29T13:17:50.977Z,21.20
2018-03-29T13:20:18.485Z,19.77
2018-03-29T13:22:45.975Z,17.50
2018-03-29T13:25:13.929Z,21.00
2018-03-29T13:27:41.399Z,19.37
2018-03-29T13:30:09.292Z,20.20
2018-03-29T13:32:36.809Z,18.83
2018-03-29T13:35:04.719Z,18.23
2018-03-29T13:37:32.228Z,19.90
2018-03-29T13:39:59.733Z,17.53
2018-03-29T13:42:27.264Z,17.93
2018-03-29T13:44:55.181Z,16.97
2018-03-29T13:47:22.713Z,17.17
2018-03-29T13:49:50.338Z,18.57
2018-03-29T13:52:17.836Z,16.00
2018-03-29T13:54:45.336Z,16.37
2018-03-29T13:57:12.832Z,13.13
2018-03-29T13:59:40.743Z,12.20
2018-03-29T14:02:08.240Z,12.60
2018-03-29T14:04:35.741Z,13.77
2018-03-29T14:07:03.245Z,12.93
2018-03-29T14:09:30.756Z,14.43
2018-03-29T14:11:58.268Z,15.03
2018-03-29T14:14:25.779Z,15.20
2018-03-29T14:16:53.312Z,14.83
2018-03-29T14:19:20.809Z,14.90
2018-03-29T14:21:48.312Z,15.03
2018-03-29T14:24:16.213Z,14.13
2018-03-29T14:26:43.708Z,16.60
2018-03-29T14:29:11.213Z,16.60
2018-03-29T14:31:38.730Z,14.63
2018-03-29T14:34:06.231Z,19.23
2018-03-29T14:36:33.741Z,18.50
2018-03-29T14:39:01.647Z,17.27
2018-03-29T14:44:03.147Z,18.17
2018-03-29T14:46:30.662Z,17.87
2018-03-29T14:48:58.563Z,18.77
2018-03-29T14:51:26.060Z,18.83
2018-03-29T14:53:53.563Z,18.00
2018-03-29T14:56:21.055Z,15.50
2018-03-29T14:58:48.558Z,14.33
2018-03-29T15:01:16.479Z,13.30
2018-03-29T15:03:43.978Z,15.00
2018-03-29T15:06:17.481Z,12.63
2018-03-29T15:08:45.008Z,13.00
2018-03-29T15:11:14.508Z,12.33
2018-03-29T15:13:42.046Z,13.03
2018-03-29T15:16:09.548Z,11.20
2018-03-29T15:18:37.490Z,11.33
2018-03-29T15:21:05.053Z,11.63
2018-03-29T15:23:32.509Z,11.23
2018-03-29T15:26:00.004Z,10.63
2018-03-29T15:28:27.511Z,10.63
2018-03-29T15:30:55.002Z,11.23
2018-03-29T15:33:22.930Z,10.27
2018-03-29T15:35:50.430Z,11.30
2018-03-29T15:38:18.343Z,10.17
2018-03-29T15:40:45.884Z,9.97
2018-03-29T15:43:13.389Z,9.63
2018-03-29T15:45:40.918Z,9.50
2018-03-29T15:48:08.425Z,9.67
2018-03-29T15:50:36.342Z,5.40
2018-03-29T15:53:03.840Z,11.07
2018-03-29T15:55:31.338Z,10.97
2018-03-29T15:57:58.847Z,11.57
2018-03-29T16:00:26.359Z,11.10
2018-03-29T16:02:53.875Z,11.17
2018-03-29T16:05:21.767Z,11.43
2018-03-29T16:07:49.268Z,10.87
2018-03-29T16:10:16.767Z,10.70
2018-03-29T16:12:44.713Z,10.40
2018-03-29T16:15:12.332Z,10.87
2018-03-29T16:17:39.828Z,11.73
2018-03-29T16:20:07.336Z,11.90
2018-03-29T16:22:34.843Z,11.40
2018-03-29T16:25:02.776Z,11.47
2018-03-29T16:27:30.304Z,10.57
2018-03-29T16:29:57.854Z,10.73
2018-03-29T16:32:25.750Z,11.13
2018-03-29T16:34:53.271Z,10.80
2018-03-29T16:37:21.184Z,11.20
2018-03-29T16:39:48.733Z,12.10
2018-03-29T16:42:16.321Z,11.73
2018-03-29T16:44:43.834Z,11.30
2018-03-29T16:47:11.344Z,12.43
2018-03-29T16:49:38.848Z,11.47
2018-03-29T16:52:06.360Z,11.60
2018-03-29T16:54:33.900Z,12.23
2018-03-29T16:57:01.391Z,12.20
2018-03-29T16:59:29.321Z,11.77
2018-03-29T17:01:56.914Z,12.30
2018-03-29T17:04:24.445Z,12.33
2018-03-29T17:06:51.951Z,10.90
2018-03-29T17:09:19.889Z,10.97
2018-03-29T17:11:47.388Z,10.80
2018-03-29T17:14:14.924Z,10.27
2018-03-29T17:16:42.450Z,10.53
2018-03-29T17:19:09.963Z,10.23
2018-03-29T17:21:37.479Z,10.80
2018-03-29T17:24:04.991Z,11.30
2018-03-29T17:26:32.492Z,10.17
2018-03-29T17:29:00.027Z,10.13
2018-03-29T17:31:27.548Z,9.70
2018-03-29T17:33:55.045Z,9.33
2018-03-29T17:36:22.541Z,10.00
2018-03-29T17:38:50.448Z,9.77
2018-03-29T17:41:17.959Z,10.27
2018-03-29T17:43:45.458Z,9.77
2018-03-29T17:46:13.026Z,9.70
2018-03-29T17:48:40.556Z,10.00
2018-03-29T17:51:08.068Z,9.97
2018-03-29T17:53:35.600Z,10.67
2018-03-29T17:56:03.103Z,10.00
2018-03-29T17:58:31.002Z,9.53
2018-03-29T18:00:58.509Z,9.53
2018-03-29T18:03:26.008Z,9.53
2018-03-29T18:05:53.919Z,10.20
2018-03-29T18:08:21.485Z,10.40
2018-03-29T18:10:48.985Z,10.10
2018-03-29T18:13:16.616Z,11.63
2018-03-29T18:15:44.119Z,11.23
2018-03-29T18:18:11.636Z,12.73
2018-03-29T18:20:39.148Z,12.47
2018-03-29T18:23:06.648Z,13.40
2018-03-29T18:25:34.155Z,14.63
2018-03-29T18:28:01.663Z,13.63
2018-03-29T18:30:29.198Z,14.40
2018-03-29T18:32:56.744Z,14.23
2018-03-29T18:35:24.227Z,13.67
2018-03-29T18:37:51.729Z,13.97
2018-03-29T18:40:19.260Z,16.43
2018-03-29T18:42:46.751Z,14.60
2018-03-29T18:45:14.238Z,12.93
2018-03-29T18:47:41.741Z,13.20
2018-03-29T18:50:09.371Z,14.30
2018-03-29T18:52:37.599Z,14.37
2018-03-29T18:55:05.110Z,13.50
2018-03-29T18:57:33.480Z,14.03
2018-03-29T19:00:00.983Z,13.20
2018-03-29T19:02:28.477Z,13.10
2018-03-29T19:04:56.160Z,13.57
2018-03-29T19:07:23.660Z,13.40
2018-03-29T19:09:51.552Z,14.20
2018-03-29T19:12:19.081Z,12.73
2018-03-29T19:14:46.966Z,14.20
2018-03-29T19:17:14.479Z,14.13
2018-03-29T19:19:41.976Z,16.57
2018-03-29T19:22:09.549Z,15.00
2018-03-29T19:24:37.114Z,15.00
2018-03-29T19:27:04.630Z,14.57
2018-03-29T19:29:33.095Z,14.53
2018-03-29T19:32:00.592Z,13.67
2018-03-29T19:34:31.309Z,13.67
2018-03-29T19:36:58.818Z,15.77
2018-03-29T19:39:26.342Z,14.63
2018-03-29T19:41:53.852Z,14.67
2018-03-29T19:44:21.400Z,14.43
2018-03-29T19:46:48.891Z,14.00
2018-03-29T19:49:16.393Z,15.63
2018-03-29T19:51:43.920Z,14.50
2018-03-29T19:54:11.440Z,16.50
2018-03-29T19:56:38.959Z,17.50
2018-03-29T19:59:06.463Z,16.00
2018-03-29T20:01:33.959Z,17.47
2018-03-29T20:04:01.462Z,18.40
2018-03-29T20:06:28.983Z,16.27
2018-03-29T20:08:56.511Z,16.60
2018-03-29T20:11:24.406Z,16.43
2018-03-29T20:13:51.931Z,16.93
2018-03-29T20:16:19.824Z,17.17
2018-03-29T20:18:47.328Z,16.95
2018-03-29T20:21:14.889Z,18.60
2018-03-29T20:23:42.376Z,17.63
2018-03-29T20:26:09.882Z,16.70
2018-03-29T20:28:37.399Z,16.67
2018-03-29T20:31:04.919Z,16.35
2018-03-29T20:33:32.440Z,16.40
2018-03-29T20:35:59.943Z,18.05
2018-03-29T20:38:27.525Z,17.52
2018-03-29T20:40:55.484Z,18.40
2018-03-29T20:43:23.397Z,16.50
2018-03-29T20:45:50.907Z,16.45
2018-03-29T20:48:18.855Z,16.40
2018-03-29T20:50:46.388Z,16.45
2018-03-29T20:53:13.907Z,16.30
2018-03-29T20:55:41.836Z,17.37
2018-03-29T20:58:09.323Z,18.08
2018-03-29T21:00:37.232Z,18.23
2018-03-29T21:03:04.760Z,17.55
2018-03-29T21:05:32.682Z,17.90
2018-03-29T21:08:00.194Z,18.70
2018-03-29T21:10:28.543Z,20.58
2018-03-29T21:12:56.490Z,19.92
2018-03-29T21:15:24.132Z,19.85
2018-03-29T21:17:51.642Z,19.05
2018-03-29T21:20:19.548Z,19.23
2018-03-29T21:22:47.164Z,19.27
2018-03-29T21:25:15.080Z,17.87
2018-03-29T21:27:42.585Z,17.95
2018-03-29T21:30:10.496Z,20.48
2018-03-29T21:32:38.017Z,20.17
2018-03-29T21:35:05.623Z,19.85
2018-03-29T21:37:33.115Z,19.37
2018-03-29T21:40:00.623Z,18.42
2018-03-29T21:42:28.205Z,18.67
2018-03-29T21:44:55.687Z,19.37
2018-03-29T21:47:23.642Z,20.33
2018-03-29T21:49:51.134Z,20.80
2018-03-29T21:52:19.047Z,19.87
2018-03-29T21:54:46.565Z,20.52
2018-03-29T21:57:14.468Z,19.15
2018-03-29T21:59:41.974Z,21.10
2018-03-29T22:02:09.894Z,21.27
2018-03-29T22:04:37.442Z,20.45
2018-03-29T22:07:04.942Z,19.12
2018-03-29T22:09:32.442Z,19.73
2018-03-29T22:11:59.953Z,19.98
2018-03-29T22:14:27.464Z,18.98
2018-03-29T22:16:54.974Z,21.12
2018-03-29T22:19:22.500Z,20.37
2018-03-29T22:21:50.007Z,19.85
2018-03-29T22:24:17.908Z,20.75
2018-03-29T22:26:45.467Z,20.85
2018-03-29T22:29:13.011Z,20.65
2018-03-29T22:31:40.538Z,22.27
2018-03-29T22:34:08.505Z,22.67
2018-03-29T22:36:36.412Z,20.55
2018-03-29T22:39:03.939Z,21.15
2018-03-29T22:41:31.868Z,22.23
2018-03-29T22:43:59.391Z,21.77
2018-03-29T22:46:26.918Z,23.00
2018-03-29T22:48:54.519Z,22.35
2018-03-29T22:51:22.468Z,21.58
2018-03-29T22:53:51.786Z,21.23
2018-03-29T22:56:19.429Z,19.73
2018-03-29T22:58:46.963Z,20.50
2018-03-29T23:01:14.882Z,21.48
2018-03-29T23:03:42.375Z,20.37
2018-03-29T23:06:09.900Z,20.77
2018-03-29T23:08:37.383Z,22.27
2018-03-29T23:11:04.941Z,20.17
2018-03-29T23:13:32.453Z,22.23
2018-03-29T23:16:00.030Z,21.70
2018-03-29T23:18:27.528Z,21.95
2018-03-29T23:20:55.090Z,22.30
2018-03-29T23:23:22.612Z,23.02
2018-03-29T23:25:50.133Z,23.85
2018-03-29T23:28:17.657Z,23.77
2018-03-29T23:30:45.199Z,24.33
2018-03-29T23:33:12.709Z,23.52
2018-03-29T23:35:40.241Z,24.25
2018-03-29T23:38:07.789Z,22.33
2018-03-29T23:40:35.318Z,23.58
2018-03-29T23:43:03.971Z,24.30
2018-03-29T23:45:31.542Z,24.30
2018-03-29T23:47:59.096Z,21.92
2018-03-29T23:50:26.606Z,22.87
2018-03-29T23:52:54.108Z,22.58
2018-03-29T23:55:21.619Z,24.33
2018-03-29T23:57:55.128Z,25.73
